createdAt,value
2018-11-23T00:00:26.308Z,5.30
2018-11-23T00:01:26.465Z,5.70
2018-11-23T00:02:26.946Z,5.40
2018-11-23T00:03:26.544Z,5.30
2018-11-23T00:04:26.264Z,5.40
2018-11-23T00:05:26.248Z,5.10
2018-11-23T00:06:26.490Z,5.30
2018-11-23T00:07:26.263Z,5.10
2018-11-23T00:08:26.222Z,5.30
2018-11-23T00:09:26.690Z,5.10
2018-11-23T00:10:26.187Z,5.40
2018-11-23T00:11:26.192Z,5.40
2018-11-23T00:12:26.548Z,5.80
2018-11-23T00:13:26.139Z,5.60
2018-11-23T00:14:26.370Z,5.40
2018-11-23T00:15:26.112Z,5.00
2018-11-23T00:16:26.138Z,5.50
2018-11-23T00:17:26.155Z,5.30
2018-11-23T00:18:26.118Z,5.30
2018-11-23T00:19:26.091Z,5.60
2018-11-23T00:20:26.342Z,5.40
2018-11-23T00:21:26.088Z,5.60
2018-11-23T00:22:26.102Z,5.00
2018-11-23T00:23:26.048Z,5.20
2018-11-23T00:24:26.035Z,5.40
2018-11-23T00:25:26.013Z,4.90
2018-11-23T00:26:26.272Z,6.00
2018-11-23T00:27:26.019Z,5.40
2018-11-23T00:28:26.226Z,5.50
2018-11-23T00:29:26.010Z,5.20
2018-11-23T00:30:26.227Z,5.40
2018-11-23T00:31:25.975Z,5.60
2018-11-23T00:32:25.996Z,5.10
2018-11-23T00:33:25.952Z,5.30
2018-11-23T00:34:26.440Z,6.00
2018-11-23T00:35:25.943Z,5.30
2018-11-23T00:36:25.935Z,5.40
2018-11-23T00:37:25.900Z,5.40
2018-11-23T00:38:26.120Z,5.50
2018-11-23T00:39:26.145Z,5.70
2018-11-23T00:40:25.904Z,5.60
2018-11-23T00:41:25.893Z,5.40
2018-11-23T00:42:26.156Z,5.10
2018-11-23T00:43:25.855Z,5.60
2018-11-23T00:44:25.876Z,5.90
2018-11-23T00:45:26.069Z,5.90
2018-11-23T00:46:25.772Z,5.70
2018-11-23T00:47:26.866Z,5.00
2018-11-23T00:48:26.327Z,5.60
2018-11-23T00:49:25.745Z,5.20
2018-11-23T00:50:25.730Z,5.40
2018-11-23T00:51:25.752Z,5.50
2018-11-23T00:52:25.997Z,5.30
2018-11-23T00:53:26.011Z,5.90
2018-11-23T00:54:25.714Z,5.80
2018-11-23T00:55:25.717Z,5.30
2018-11-23T00:56:25.732Z,5.50
2018-11-23T00:57:25.674Z,5.50
2018-11-23T00:58:25.646Z,5.60
2018-11-23T00:59:25.912Z,5.50
2018-11-23T01:00:25.655Z,5.80
2018-11-23T01:01:25.659Z,6.00
2018-11-23T01:02:25.609Z,5.70
2018-11-23T01:03:25.608Z,5.80
2018-11-23T01:04:25.622Z,5.60
2018-11-23T01:05:25.847Z,5.60
2018-11-23T01:06:26.208Z,5.80
2018-11-23T01:07:25.844Z,5.50
2018-11-23T01:08:25.537Z,5.80
2018-11-23T01:09:25.565Z,5.80
2018-11-23T01:10:25.513Z,5.70
2018-11-23T01:11:25.549Z,6.00
2018-11-23T01:12:25.489Z,5.60
2018-11-23T01:13:25.517Z,5.60
2018-11-23T01:14:25.515Z,6.30
2018-11-23T01:15:25.520Z,5.70
2018-11-23T01:16:25.451Z,5.70
2018-11-23T01:17:25.745Z,5.80
2018-11-23T01:18:25.756Z,5.50
2018-11-23T01:19:25.434Z,6.30
2018-11-23T01:20:25.413Z,5.80
2018-11-23T01:21:25.650Z,5.60
2018-11-23T01:22:25.395Z,5.90
2018-11-23T01:23:25.407Z,5.90
2018-11-23T01:24:25.407Z,5.70
2018-11-23T01:25:25.396Z,5.40
2018-11-23T01:26:25.386Z,6.00
2018-11-23T01:27:25.364Z,5.50
2018-11-23T01:28:25.384Z,5.60
2018-11-23T01:29:25.343Z,5.80
2018-11-23T01:30:27.224Z,5.70
2018-11-23T01:31:25.346Z,5.80
2018-11-23T01:32:25.317Z,5.80
2018-11-23T01:33:25.341Z,5.80
2018-11-23T01:34:25.574Z,5.50
2018-11-23T01:35:25.274Z,5.80
2018-11-23T01:36:25.296Z,5.30
2018-11-23T01:37:25.242Z,5.60
2018-11-23T01:38:25.291Z,5.70
2018-11-23T01:39:25.224Z,5.70
2018-11-23T01:40:25.256Z,5.60
2018-11-23T01:41:25.210Z,5.70
2018-11-23T01:42:25.181Z,5.90
2018-11-23T01:43:25.478Z,5.60
2018-11-23T01:44:25.216Z,5.70
2018-11-23T01:45:25.136Z,5.90
2018-11-23T01:46:25.129Z,5.80
2018-11-23T01:47:25.150Z,5.80
2018-11-23T01:48:25.172Z,5.80
2018-11-23T01:49:25.363Z,5.80
2018-11-23T01:50:25.106Z,5.50
2018-11-23T01:51:25.117Z,5.60
2018-11-23T01:52:28.516Z,5.50
2018-11-23T01:53:25.088Z,5.50
2018-11-23T01:54:25.062Z,6.00
2018-11-23T01:55:25.049Z,6.00
2018-11-23T01:56:25.080Z,5.70
2018-11-23T01:57:25.037Z,6.20
2018-11-23T01:58:25.062Z,5.70
2018-11-23T01:59:25.100Z,5.90
2018-11-23T02:00:24.985Z,5.80
2018-11-23T02:01:28.171Z,6.10
2018-11-23T02:02:24.959Z,5.70
2018-11-23T02:03:24.979Z,5.30
2018-11-23T02:04:25.239Z,5.90
2018-11-23T02:05:24.937Z,5.50
2018-11-23T02:06:24.925Z,5.20
2018-11-23T02:07:28.078Z,5.70
2018-11-23T02:08:24.964Z,5.80
2018-11-23T02:09:24.987Z,6.40
2018-11-23T02:10:24.930Z,6.00
2018-11-23T02:11:25.209Z,5.60
2018-11-23T02:12:24.899Z,5.80
2018-11-23T02:13:25.148Z,6.20
2018-11-23T02:14:24.840Z,5.40
2018-11-23T02:15:24.852Z,6.00
2018-11-23T02:16:24.811Z,5.70
2018-11-23T02:17:24.798Z,5.90
2018-11-23T02:18:24.849Z,5.20
2018-11-23T02:19:24.848Z,5.20
2018-11-23T02:20:24.793Z,5.60
2018-11-23T02:21:24.796Z,5.70
2018-11-23T02:22:24.747Z,6.30
2018-11-23T02:23:24.794Z,5.50
2018-11-23T02:24:24.729Z,5.70
2018-11-23T02:25:24.714Z,5.80
2018-11-23T02:26:24.960Z,5.90
2018-11-23T02:27:24.687Z,6.00
2018-11-23T02:28:24.712Z,5.40
2018-11-23T02:29:24.676Z,5.90
2018-11-23T02:30:24.673Z,5.60
2018-11-23T02:31:24.658Z,5.70
2018-11-23T02:32:24.891Z,5.80
2018-11-23T02:33:24.726Z,5.80
2018-11-23T02:34:24.629Z,5.80
2018-11-23T02:35:24.605Z,5.50
2018-11-23T02:36:24.607Z,6.20
2018-11-23T02:37:24.583Z,5.60
2018-11-23T02:38:24.794Z,5.90
2018-11-23T02:39:24.575Z,5.90
2018-11-23T02:40:24.568Z,6.00
2018-11-23T02:41:24.639Z,6.00
2018-11-23T02:42:24.822Z,6.00
2018-11-23T02:43:24.832Z,5.50
2018-11-23T02:44:24.567Z,6.00
2018-11-23T02:45:24.753Z,5.40
2018-11-23T02:46:24.569Z,5.60
2018-11-23T02:47:24.481Z,5.70
2018-11-23T02:48:24.507Z,5.80
2018-11-23T02:49:24.505Z,5.30
2018-11-23T02:50:24.723Z,5.70
2018-11-23T02:51:25.021Z,5.80
2018-11-23T02:52:24.434Z,5.70
2018-11-23T02:53:24.506Z,5.90
2018-11-23T02:54:24.476Z,5.60
2018-11-23T02:55:24.420Z,5.70
2018-11-23T02:56:24.442Z,5.40
2018-11-23T02:57:24.625Z,5.40
2018-11-23T02:58:24.366Z,5.60
2018-11-23T02:59:24.428Z,6.00
2018-11-23T03:00:26.445Z,5.90
2018-11-23T03:01:24.326Z,5.50
2018-11-23T03:02:24.614Z,6.20
2018-11-23T03:03:24.615Z,5.60
2018-11-23T03:04:24.512Z,6.00
2018-11-23T03:05:24.292Z,5.90
2018-11-23T03:06:24.289Z,5.60
2018-11-23T03:07:24.264Z,6.10
2018-11-23T03:08:24.257Z,6.00
2018-11-23T03:09:24.277Z,5.90
2018-11-23T03:10:24.292Z,5.50
2018-11-23T03:11:24.240Z,5.90
2018-11-23T03:12:24.207Z,5.90
2018-11-23T03:13:24.233Z,6.00
2018-11-23T03:14:24.226Z,5.50
2018-11-23T03:15:24.495Z,6.10
2018-11-23T03:16:24.195Z,6.10
2018-11-23T03:17:24.414Z,5.70
2018-11-23T03:18:24.415Z,5.90
2018-11-23T03:19:24.170Z,6.50
2018-11-23T03:20:24.697Z,6.10
2018-11-23T03:21:24.114Z,5.60
2018-11-23T03:22:24.123Z,6.00
2018-11-23T03:23:24.095Z,5.50
2018-11-23T03:24:24.370Z,6.20
2018-11-23T03:25:24.077Z,5.60
2018-11-23T03:26:24.318Z,5.80
2018-11-23T03:27:24.054Z,6.10
2018-11-23T03:28:24.074Z,5.60
2018-11-23T03:29:24.070Z,5.70
2018-11-23T03:30:24.069Z,5.70
2018-11-23T03:31:24.013Z,6.40
2018-11-23T03:32:24.052Z,5.90
2018-11-23T03:33:24.062Z,5.60
2018-11-23T03:34:24.031Z,5.80
2018-11-23T03:35:23.984Z,5.70
2018-11-23T03:36:23.950Z,6.00
2018-11-23T03:37:23.951Z,5.90
2018-11-23T03:38:23.944Z,6.30
2018-11-23T03:39:23.994Z,5.50
2018-11-23T03:40:24.202Z,6.20
2018-11-23T03:41:23.899Z,5.80
2018-11-23T03:42:23.927Z,5.80
2018-11-23T03:43:24.189Z,6.10
2018-11-23T03:44:23.917Z,5.90
2018-11-23T03:45:24.154Z,5.70
2018-11-23T03:46:23.844Z,6.00
2018-11-23T03:47:23.835Z,5.80
2018-11-23T03:48:23.860Z,6.20
2018-11-23T03:49:23.861Z,6.20
2018-11-23T03:50:23.926Z,5.60
2018-11-23T03:51:23.798Z,6.00
2018-11-23T03:52:23.787Z,6.40
2018-11-23T03:53:23.774Z,6.20
2018-11-23T03:54:23.815Z,5.90
2018-11-23T03:55:24.260Z,5.90
2018-11-23T03:56:24.008Z,6.50
2018-11-23T03:57:23.735Z,6.10
2018-11-23T03:58:23.724Z,6.10
2018-11-23T03:59:23.844Z,6.20
2018-11-23T04:00:23.697Z,6.20
2018-11-23T04:01:23.691Z,6.20
2018-11-23T04:02:23.925Z,5.90
2018-11-23T04:03:23.691Z,6.20
2018-11-23T04:04:23.688Z,6.20
2018-11-23T04:05:23.649Z,6.20
2018-11-23T04:06:23.632Z,6.10
2018-11-23T04:07:23.624Z,6.40
2018-11-23T04:08:24.162Z,6.00
2018-11-23T04:09:23.631Z,6.30
2018-11-23T04:10:23.669Z,6.10
2018-11-23T04:11:23.616Z,5.80
2018-11-23T04:12:23.582Z,6.70
2018-11-23T04:13:23.636Z,5.70
2018-11-23T04:14:23.893Z,6.10
2018-11-23T04:15:23.539Z,5.90
2018-11-23T04:16:23.677Z,5.80
2018-11-23T04:17:23.512Z,6.10
2018-11-23T04:18:23.846Z,6.30
2018-11-23T04:19:25.483Z,6.40
2018-11-23T04:20:23.788Z,6.10
2018-11-23T04:21:23.508Z,6.20
2018-11-23T04:22:23.467Z,6.30
2018-11-23T04:23:23.514Z,6.00
2018-11-23T04:24:23.439Z,6.00
2018-11-23T04:25:23.496Z,6.00
2018-11-23T04:26:24.849Z,5.80
2018-11-23T04:27:23.409Z,5.70
2018-11-23T04:28:23.390Z,5.90
2018-11-23T04:29:23.419Z,6.10
2018-11-23T04:30:23.411Z,6.20
2018-11-23T04:31:23.368Z,5.90
2018-11-23T04:32:23.619Z,6.50
2018-11-23T04:33:23.380Z,6.30
2018-11-23T04:34:27.354Z,6.40
2018-11-23T04:35:23.609Z,6.10
2018-11-23T04:36:23.312Z,6.30
2018-11-23T04:37:23.300Z,5.80
2018-11-23T04:38:23.571Z,6.00
2018-11-23T04:39:23.276Z,6.20
2018-11-23T04:40:23.310Z,6.50
2018-11-23T04:41:23.745Z,6.00
2018-11-23T04:42:23.247Z,5.80
2018-11-23T04:43:23.229Z,5.90
2018-11-23T04:44:23.221Z,5.80
2018-11-23T04:45:23.247Z,6.20
2018-11-23T04:46:23.478Z,5.90
2018-11-23T04:47:23.449Z,6.00
2018-11-23T04:48:23.215Z,6.30
2018-11-23T04:49:23.421Z,6.20
2018-11-23T04:50:23.190Z,6.20
2018-11-23T04:51:23.440Z,6.20
2018-11-23T04:52:23.139Z,6.20
2018-11-23T04:53:23.676Z,6.00
2018-11-23T04:54:23.112Z,6.20
2018-11-23T04:55:23.427Z,6.00
2018-11-23T04:56:23.109Z,5.90
2018-11-23T04:57:23.082Z,6.20
2018-11-23T04:58:23.323Z,6.60
2018-11-23T04:59:23.056Z,6.60
2018-11-23T05:00:23.115Z,6.50
2018-11-23T05:01:23.061Z,6.20
2018-11-23T05:02:23.291Z,6.00
2018-11-23T05:03:23.270Z,5.80
2018-11-23T05:04:23.026Z,6.20
2018-11-23T05:05:23.063Z,6.50
2018-11-23T05:06:22.992Z,6.30
2018-11-23T05:07:22.973Z,6.40
2018-11-23T05:08:22.964Z,6.10
2018-11-23T05:09:23.198Z,6.10
2018-11-23T05:10:23.308Z,6.10
2018-11-23T05:11:22.943Z,5.90
2018-11-23T05:12:22.928Z,6.10
2018-11-23T05:13:23.162Z,6.50
2018-11-23T05:14:22.925Z,6.40
2018-11-23T05:15:23.124Z,6.30
2018-11-23T05:16:22.921Z,5.90
2018-11-23T05:17:22.865Z,6.40
2018-11-23T05:18:22.907Z,6.20
2018-11-23T05:19:22.845Z,5.80
2018-11-23T05:20:22.885Z,6.50
2018-11-23T05:21:22.827Z,6.50
2018-11-23T05:22:22.845Z,6.60
2018-11-23T05:23:22.816Z,6.10
2018-11-23T05:24:22.793Z,6.20
2018-11-23T05:25:22.809Z,6.00
2018-11-23T05:26:22.775Z,6.00
2018-11-23T05:27:22.763Z,6.20
2018-11-23T05:28:22.751Z,6.10
2018-11-23T05:29:23.197Z,6.30
2018-11-23T05:30:23.063Z,6.40
2018-11-23T05:31:22.768Z,6.00
2018-11-23T05:32:22.740Z,6.30
2018-11-23T05:33:22.696Z,6.40
2018-11-23T05:34:22.687Z,6.20
2018-11-23T05:35:22.715Z,6.30
2018-11-23T05:36:23.358Z,6.10
2018-11-23T05:37:22.689Z,6.30
2018-11-23T05:38:22.652Z,6.50
2018-11-23T05:39:22.634Z,6.10
2018-11-23T05:40:22.657Z,6.00
2018-11-23T05:41:22.619Z,6.10
2018-11-23T05:42:22.884Z,6.40
2018-11-23T05:43:22.595Z,6.10
2018-11-23T05:44:22.606Z,6.30
2018-11-23T05:45:22.596Z,6.10
2018-11-23T05:46:22.561Z,6.40
2018-11-23T05:47:22.558Z,6.90
2018-11-23T05:48:26.783Z,6.40
2018-11-23T05:49:22.577Z,6.20
2018-11-23T05:50:22.581Z,6.30
2018-11-23T05:51:22.568Z,6.40
2018-11-23T05:52:22.488Z,6.20
2018-11-23T05:53:22.521Z,6.00
2018-11-23T05:54:22.475Z,5.90
2018-11-23T05:55:22.751Z,5.80
2018-11-23T05:56:22.716Z,6.60
2018-11-23T05:57:22.735Z,6.20
2018-11-23T05:58:22.422Z,5.70
2018-11-23T05:59:22.424Z,5.70
2018-11-23T06:00:22.456Z,6.00
2018-11-23T06:01:22.418Z,5.90
2018-11-23T06:02:22.657Z,5.90
2018-11-23T06:03:22.374Z,6.20
2018-11-23T06:04:22.374Z,6.30
2018-11-23T06:05:22.389Z,6.40
2018-11-23T06:06:22.638Z,5.50
2018-11-23T06:07:23.790Z,6.50
2018-11-23T06:08:22.333Z,6.10
2018-11-23T06:09:22.311Z,6.80
2018-11-23T06:10:22.340Z,5.80
2018-11-23T06:11:22.290Z,6.30
2018-11-23T06:12:22.276Z,5.80
2018-11-23T06:13:22.276Z,8.60
2018-11-23T06:14:22.529Z,8.80
2018-11-23T06:15:22.258Z,9.60
2018-11-23T06:16:22.289Z,9.90
2018-11-23T06:17:22.227Z,10.40
2018-11-23T06:18:22.246Z,10.70
2018-11-23T06:19:22.208Z,9.90
2018-11-23T06:20:22.204Z,10.70
2018-11-23T06:21:22.228Z,10.60
2018-11-23T06:22:22.197Z,11.20
2018-11-23T06:23:22.169Z,12.00
2018-11-23T06:24:22.146Z,10.90
2018-11-23T06:25:22.143Z,10.70
2018-11-23T06:26:22.208Z,11.80
2018-11-23T06:27:22.148Z,12.20
2018-11-23T06:28:22.360Z,11.50
2018-11-23T06:29:22.097Z,10.80
2018-11-23T06:30:22.103Z,10.90
2018-11-23T06:31:22.389Z,10.90
2018-11-23T06:32:22.079Z,12.10
2018-11-23T06:33:22.086Z,11.10
2018-11-23T06:34:22.310Z,10.90
2018-11-23T06:35:22.300Z,9.90
2018-11-23T06:36:22.069Z,9.40
2018-11-23T06:37:22.031Z,8.80
2018-11-23T06:38:22.320Z,8.30
2018-11-23T06:39:21.997Z,8.40
2018-11-23T06:40:21.986Z,8.00
2018-11-23T06:41:22.004Z,7.90
2018-11-23T06:42:21.983Z,7.90
2018-11-23T06:43:21.948Z,7.50
2018-11-23T06:44:22.194Z,7.90
2018-11-23T06:45:21.928Z,7.30
2018-11-23T06:46:21.957Z,7.90
2018-11-23T06:47:21.938Z,6.70
2018-11-23T06:48:21.926Z,6.70
2018-11-23T06:49:22.173Z,6.90
2018-11-23T06:50:21.904Z,7.30
2018-11-23T06:51:21.918Z,5.80
2018-11-23T06:52:21.863Z,6.40
2018-11-23T06:53:21.906Z,6.20
2018-11-23T06:54:21.833Z,6.40
2018-11-23T06:55:21.830Z,5.70
2018-11-23T06:56:21.814Z,6.30
2018-11-23T06:57:21.873Z,6.00
2018-11-23T06:58:21.798Z,5.50
2018-11-23T06:59:22.030Z,5.60
2018-11-23T07:00:21.789Z,5.10
2018-11-23T07:01:21.760Z,6.50
2018-11-23T07:02:21.783Z,5.60
2018-11-23T07:03:22.018Z,6.00
2018-11-23T07:04:21.737Z,5.40
2018-11-23T07:05:21.715Z,5.10
2018-11-23T07:06:21.745Z,6.00
2018-11-23T07:07:21.735Z,5.30
2018-11-23T07:08:21.992Z,5.40
2018-11-23T07:09:21.691Z,5.60
2018-11-23T07:10:21.658Z,5.20
2018-11-23T07:11:22.101Z,5.30
2018-11-23T07:12:22.059Z,5.80
2018-11-23T07:13:21.971Z,5.50
2018-11-23T07:14:22.560Z,5.30
2018-11-23T07:15:21.611Z,5.40
2018-11-23T07:16:21.869Z,5.10
2018-11-23T07:17:21.662Z,5.50
2018-11-23T07:18:21.622Z,5.50
2018-11-23T07:19:21.831Z,6.00
2018-11-23T07:20:21.578Z,5.70
2018-11-23T07:21:21.652Z,5.70
2018-11-23T07:22:21.552Z,5.70
2018-11-23T07:23:21.602Z,5.50
2018-11-23T07:24:21.651Z,5.60
2018-11-23T07:25:21.692Z,5.60
2018-11-23T07:26:21.610Z,6.20
2018-11-23T07:27:21.571Z,6.10
2018-11-23T07:28:21.536Z,6.00
2018-11-23T07:29:23.304Z,5.80
2018-11-23T07:30:26.184Z,6.10
2018-11-23T07:31:21.811Z,6.60
2018-11-23T07:32:22.853Z,5.80
2018-11-23T07:33:21.507Z,6.30
2018-11-23T07:34:21.615Z,6.90
2018-11-23T07:35:22.024Z,6.10
2018-11-23T07:36:21.564Z,6.40
2018-11-23T07:37:21.658Z,6.50
2018-11-23T07:38:21.528Z,5.90
2018-11-23T07:39:21.555Z,6.20
2018-11-23T07:40:21.824Z,6.70
2018-11-23T07:41:21.702Z,5.80
2018-11-23T07:42:22.257Z,6.10
2018-11-23T07:43:21.808Z,6.60
2018-11-23T07:44:21.805Z,5.90
2018-11-23T07:45:21.409Z,5.90
2018-11-23T07:46:21.383Z,6.00
2018-11-23T07:47:21.374Z,6.00
2018-11-23T07:48:21.468Z,6.50
2018-11-23T07:49:21.447Z,6.00
2018-11-23T07:50:21.388Z,5.60
2018-11-23T07:51:21.434Z,6.00
2018-11-23T07:52:21.318Z,5.80
2018-11-23T07:53:21.526Z,6.50
2018-11-23T07:54:22.191Z,5.70
2018-11-23T07:55:21.282Z,6.20
2018-11-23T07:56:21.204Z,6.20
2018-11-23T07:57:21.467Z,5.70
2018-11-23T07:58:21.580Z,5.30
2018-11-23T07:59:21.158Z,6.00
2018-11-23T08:00:21.171Z,5.60
2018-11-23T08:01:21.156Z,5.80
2018-11-23T08:02:21.214Z,5.90
2018-11-23T08:03:21.446Z,5.70
2018-11-23T08:04:21.166Z,5.70
2018-11-23T08:05:21.114Z,5.70
2018-11-23T08:06:21.615Z,5.30
2018-11-23T08:07:21.359Z,5.60
2018-11-23T08:08:21.364Z,5.70
2018-11-23T08:09:21.187Z,5.70
2018-11-23T08:10:21.084Z,5.60
2018-11-23T08:11:21.296Z,5.40
2018-11-23T08:12:21.031Z,5.40
2018-11-23T08:13:21.117Z,5.40
2018-11-23T08:14:21.391Z,5.60
2018-11-23T08:15:21.011Z,5.50
2018-11-23T08:16:21.023Z,5.40
2018-11-23T08:17:21.091Z,5.40
2018-11-23T08:18:21.484Z,5.40
2018-11-23T08:19:21.291Z,4.90
2018-11-23T08:20:20.961Z,5.10
2018-11-23T08:21:20.957Z,5.60
2018-11-23T08:22:21.167Z,5.60
2018-11-23T08:23:24.860Z,5.20
2018-11-23T08:24:25.210Z,4.50
2018-11-23T08:25:21.335Z,5.20
2018-11-23T08:26:21.366Z,5.40
2018-11-23T08:27:20.934Z,5.10
2018-11-23T08:28:21.695Z,4.90
2018-11-23T08:29:22.555Z,5.30
2018-11-23T08:30:20.929Z,5.10
2018-11-23T08:31:20.931Z,5.30
2018-11-23T08:32:24.651Z,5.30
2018-11-23T08:33:21.877Z,5.10
2018-11-23T08:34:21.052Z,4.90
2018-11-23T08:35:20.956Z,4.70
2018-11-23T08:36:20.797Z,4.70
2018-11-23T08:37:20.983Z,4.90
2018-11-23T08:38:20.788Z,5.20
2018-11-23T08:39:21.052Z,4.20
2018-11-23T08:40:21.000Z,4.70
2018-11-23T08:41:20.826Z,4.80
2018-11-23T08:42:21.103Z,4.80
2018-11-23T08:43:21.238Z,4.70
2018-11-23T08:44:20.802Z,4.80
2018-11-23T08:45:20.931Z,4.40
2018-11-23T08:46:20.945Z,5.00
2018-11-23T08:47:21.830Z,4.90
2018-11-23T08:48:20.762Z,5.20
2018-11-23T08:49:24.054Z,4.60
2018-11-23T08:50:20.606Z,4.50
2018-11-23T08:51:20.639Z,4.80
2018-11-23T08:52:20.575Z,5.00
2018-11-23T08:53:27.746Z,5.20
2018-11-23T08:54:20.602Z,5.30
2018-11-23T08:55:20.576Z,4.40
2018-11-23T08:56:20.774Z,4.70
2018-11-23T08:57:20.508Z,5.00
2018-11-23T08:58:20.750Z,4.90
2018-11-23T08:59:21.152Z,5.40
2018-11-23T09:00:20.537Z,5.30
2018-11-23T09:01:20.482Z,4.50
2018-11-23T09:02:20.969Z,4.50
2018-11-23T09:03:20.446Z,6.00
2018-11-23T09:04:20.755Z,5.00
2018-11-23T09:05:20.757Z,4.90
2018-11-23T09:06:20.678Z,4.80
2018-11-23T09:07:20.433Z,4.70
2018-11-23T09:08:20.837Z,5.40
2018-11-23T09:09:20.430Z,5.10
2018-11-23T09:10:20.629Z,4.80
2018-11-23T09:11:21.155Z,4.90
2018-11-23T09:12:20.527Z,4.90
2018-11-23T09:13:20.704Z,5.80
2018-11-23T09:14:20.491Z,4.70
2018-11-23T09:15:21.238Z,5.50
2018-11-23T09:16:20.346Z,5.30
2018-11-23T09:17:20.578Z,5.50
2018-11-23T09:18:20.622Z,5.20
2018-11-23T09:19:20.599Z,5.70
2018-11-23T09:20:20.837Z,5.20
2018-11-23T09:21:20.526Z,5.60
2018-11-23T09:22:23.551Z,5.70
2018-11-23T09:23:20.235Z,5.80
2018-11-23T09:24:20.276Z,5.50
2018-11-23T09:25:20.219Z,5.20
2018-11-23T09:26:20.231Z,5.10
2018-11-23T09:27:20.459Z,5.20
2018-11-23T09:28:20.176Z,5.50
2018-11-23T09:29:21.618Z,5.70
2018-11-23T09:30:20.541Z,5.50
2018-11-23T09:31:20.241Z,5.60
2018-11-23T09:32:20.256Z,6.40
2018-11-23T09:33:20.497Z,5.80
2018-11-23T09:34:20.265Z,5.70
2018-11-23T09:35:20.577Z,5.70
2018-11-23T09:36:20.203Z,6.40
2018-11-23T09:37:20.270Z,6.00
2018-11-23T09:38:21.449Z,6.00
2018-11-23T09:39:20.642Z,5.70
2018-11-23T09:40:20.323Z,5.40
2018-11-23T09:41:20.967Z,5.90
2018-11-23T09:42:20.063Z,5.80
2018-11-23T09:43:20.014Z,5.70
2018-11-23T09:44:20.113Z,5.70
2018-11-23T09:45:20.001Z,6.10
2018-11-23T09:46:19.982Z,5.80
2018-11-23T09:47:20.322Z,5.80
2018-11-23T09:48:20.594Z,5.90
2018-11-23T09:49:20.288Z,6.30
2018-11-23T09:50:20.709Z,5.90
2018-11-23T09:51:19.939Z,5.60
2018-11-23T09:52:19.938Z,6.10
2018-11-23T09:53:19.920Z,5.60
2018-11-23T09:54:19.966Z,6.10
2018-11-23T09:55:20.146Z,6.00
2018-11-23T09:56:20.255Z,5.90
2018-11-23T09:57:19.879Z,6.00
2018-11-23T09:58:19.865Z,6.10
2018-11-23T09:59:19.901Z,5.80
2018-11-23T10:00:20.386Z,6.30
2018-11-23T10:01:20.074Z,5.80
2018-11-23T10:02:19.810Z,5.90
2018-11-23T10:03:20.134Z,6.10
2018-11-23T10:04:19.840Z,5.70
2018-11-23T10:05:19.790Z,6.00
2018-11-23T10:06:20.041Z,5.50
2018-11-23T10:07:20.021Z,5.70
2018-11-23T10:08:19.776Z,5.50
2018-11-23T10:09:20.033Z,5.30
2018-11-23T10:10:19.985Z,5.70
2018-11-23T10:11:19.780Z,5.00
2018-11-23T10:12:19.714Z,5.10
2018-11-23T10:13:21.363Z,5.70
2018-11-23T10:14:19.691Z,4.90
2018-11-23T10:15:19.673Z,5.60
2018-11-23T10:16:19.909Z,5.10
2018-11-23T10:17:19.688Z,5.30
2018-11-23T10:18:19.675Z,5.40
2018-11-23T10:19:19.629Z,5.20
2018-11-23T10:20:19.929Z,5.00
2018-11-23T10:21:19.669Z,5.70
2018-11-23T10:22:20.126Z,5.50
2018-11-23T10:23:19.591Z,4.80
2018-11-23T10:24:19.830Z,5.30
2018-11-23T10:25:19.624Z,5.10
2018-11-23T10:26:19.551Z,5.30
2018-11-23T10:27:19.797Z,5.50
2018-11-23T10:28:19.809Z,5.00
2018-11-23T10:29:19.779Z,5.20
2018-11-23T10:30:19.793Z,5.20
2018-11-23T10:31:19.508Z,5.40
2018-11-23T10:32:19.506Z,5.40
2018-11-23T10:33:19.524Z,5.50
2018-11-23T10:34:19.475Z,5.20
2018-11-23T10:35:19.998Z,5.20
2018-11-23T10:36:19.448Z,5.40
2018-11-23T10:37:19.691Z,5.20
2018-11-23T10:38:19.448Z,5.70
2018-11-23T10:39:19.992Z,4.90
2018-11-23T10:40:20.151Z,5.30
2018-11-23T10:41:19.415Z,6.00
2018-11-23T10:42:19.380Z,5.20
2018-11-23T10:43:19.625Z,6.30
2018-11-23T10:44:19.404Z,5.20
2018-11-23T10:45:22.713Z,4.90
2018-11-23T10:46:19.390Z,5.40
2018-11-23T10:47:19.841Z,5.10
2018-11-23T10:48:19.336Z,4.80
2018-11-23T10:49:19.301Z,5.10
2018-11-23T10:50:19.847Z,4.70
2018-11-23T10:51:19.540Z,5.40
2018-11-23T10:52:19.263Z,5.40
2018-11-23T10:53:19.265Z,5.10
2018-11-23T10:54:19.499Z,5.00
2018-11-23T10:55:19.302Z,5.30
2018-11-23T10:56:19.247Z,5.90
2018-11-23T10:57:19.496Z,5.50
2018-11-23T10:58:19.457Z,5.50
2018-11-23T10:59:19.729Z,5.30
2018-11-23T11:00:25.118Z,4.90
2018-11-23T11:01:19.449Z,5.50
2018-11-23T11:02:22.683Z,5.10
2018-11-23T11:03:19.163Z,5.20
2018-11-23T11:04:19.144Z,5.20
2018-11-23T11:05:19.961Z,5.40
2018-11-23T11:06:19.133Z,5.40
2018-11-23T11:07:19.118Z,5.20
2018-11-23T11:08:20.141Z,5.10
2018-11-23T11:09:19.764Z,5.20
2018-11-23T11:10:19.097Z,5.40
2018-11-23T11:11:23.485Z,5.00
2018-11-23T11:12:19.054Z,5.40
2018-11-23T11:13:19.063Z,5.40
2018-11-23T11:14:19.079Z,4.90
2018-11-23T11:15:19.289Z,5.30
2018-11-23T11:16:19.325Z,5.10
2018-11-23T11:17:19.253Z,5.30
2018-11-23T11:18:18.992Z,5.00
2018-11-23T11:19:18.986Z,5.30
2018-11-23T11:20:19.264Z,5.30
2018-11-23T11:21:19.289Z,4.90
2018-11-23T11:22:19.226Z,5.40
2018-11-23T11:23:19.210Z,5.20
2018-11-23T11:24:18.920Z,4.60
2018-11-23T11:25:18.927Z,5.10
2018-11-23T11:26:18.926Z,5.70
2018-11-23T11:27:17.929Z,4.90
2018-11-23T11:28:18.895Z,5.30
2018-11-23T11:29:19.125Z,5.00
2018-11-23T11:30:19.661Z,5.00
2018-11-23T11:31:18.902Z,4.90
2018-11-23T11:32:19.124Z,5.10
2018-11-23T11:33:19.086Z,4.90
2018-11-23T11:34:18.822Z,4.70
2018-11-23T11:35:18.832Z,5.10
2018-11-23T11:36:18.822Z,5.30
2018-11-23T11:37:19.068Z,5.20
2018-11-23T11:38:18.781Z,4.90
2018-11-23T11:39:19.027Z,5.20
2018-11-23T11:40:19.051Z,4.60
2018-11-23T11:41:19.094Z,5.00
2018-11-23T11:42:19.103Z,5.40
2018-11-23T11:43:20.455Z,5.40
2018-11-23T11:44:18.888Z,5.40
2018-11-23T11:45:19.193Z,4.90
2018-11-23T11:46:19.649Z,4.60
2018-11-23T11:47:19.849Z,4.80
2018-11-23T11:48:20.695Z,5.10
2018-11-23T11:49:18.686Z,4.80
2018-11-23T11:50:18.652Z,5.20
2018-11-23T11:51:18.636Z,4.80
2018-11-23T11:52:18.888Z,4.90
2018-11-23T11:53:18.705Z,5.10
2018-11-23T11:54:18.639Z,5.20
2018-11-23T11:55:18.854Z,5.50
2018-11-23T11:56:18.830Z,4.80
2018-11-23T11:57:18.829Z,5.20
2018-11-23T11:58:18.830Z,4.90
2018-11-23T11:59:20.935Z,4.60
2018-11-23T12:00:18.551Z,4.90
2018-11-23T12:01:18.590Z,5.50
2018-11-23T12:02:18.537Z,5.30
2018-11-23T12:03:18.790Z,4.80
2018-11-23T12:04:18.496Z,4.70
2018-11-23T12:05:18.780Z,4.90
2018-11-23T12:06:18.806Z,4.50
2018-11-23T12:07:18.482Z,5.00
2018-11-23T12:08:18.727Z,4.70
2018-11-23T12:09:18.448Z,5.40
2018-11-23T12:10:18.428Z,4.70
2018-11-23T12:11:18.667Z,4.80
2018-11-23T12:12:18.667Z,4.80
2018-11-23T12:13:18.406Z,4.80
2018-11-23T12:14:18.973Z,4.90
2018-11-23T12:15:18.377Z,4.70
2018-11-23T12:16:18.380Z,5.40
2018-11-23T12:17:18.360Z,5.20
2018-11-23T12:18:17.638Z,4.50
2018-11-23T12:19:18.350Z,5.00
2018-11-23T12:20:18.573Z,4.90
2018-11-23T12:21:18.333Z,4.90
2018-11-23T12:22:18.314Z,4.70
2018-11-23T12:23:18.563Z,4.90
2018-11-23T12:24:18.327Z,4.90
2018-11-23T12:25:18.715Z,4.80
2018-11-23T12:26:18.267Z,4.40
2018-11-23T12:27:18.501Z,4.60
2018-11-23T12:28:18.730Z,4.70
2018-11-23T12:29:18.499Z,4.90
2018-11-23T12:30:23.786Z,4.40
2018-11-23T12:31:18.473Z,4.80
2018-11-23T12:32:18.189Z,4.30
2018-11-23T12:33:18.478Z,5.00
2018-11-23T12:34:18.441Z,5.10
2018-11-23T12:35:18.178Z,4.50
2018-11-23T12:36:18.168Z,4.90
2018-11-23T12:37:18.148Z,4.90
2018-11-23T12:38:18.380Z,4.10
2018-11-23T12:39:18.187Z,4.50
2018-11-23T12:40:18.115Z,5.30
2018-11-23T12:41:18.608Z,5.00
2018-11-23T12:42:18.101Z,5.00
2018-11-23T12:43:18.076Z,4.80
2018-11-23T12:44:18.087Z,4.50
2018-11-23T12:45:18.340Z,5.20
2018-11-23T12:46:18.092Z,4.80
2018-11-23T12:47:18.039Z,4.70
2018-11-23T12:48:18.537Z,4.70
2018-11-23T12:49:18.332Z,4.50
2018-11-23T12:50:18.020Z,4.50
2018-11-23T12:51:17.982Z,4.60
2018-11-23T12:52:17.987Z,4.50
2018-11-23T12:53:18.264Z,4.70
2018-11-23T12:54:17.991Z,4.70
2018-11-23T12:55:17.945Z,4.50
2018-11-23T12:56:17.944Z,4.90
2018-11-23T12:57:20.108Z,4.80
2018-11-23T12:58:18.171Z,4.70
2018-11-23T12:59:18.178Z,4.70
2018-11-23T13:00:17.912Z,4.50
2018-11-23T13:01:18.411Z,4.40
2018-11-23T13:02:17.912Z,4.80
2018-11-23T13:03:17.870Z,4.40
2018-11-23T13:04:18.186Z,4.80
2018-11-23T13:05:17.848Z,4.60
2018-11-23T13:06:18.335Z,5.20
2018-11-23T13:07:17.839Z,4.80
2018-11-23T13:08:17.829Z,5.00
2018-11-23T13:09:18.320Z,4.40
2018-11-23T13:10:18.039Z,5.00
2018-11-23T13:11:17.780Z,4.30
2018-11-23T13:12:18.016Z,4.90
2018-11-23T13:13:18.260Z,4.60
2018-11-23T13:14:17.766Z,5.10
2018-11-23T13:15:18.016Z,4.50
2018-11-23T13:16:17.799Z,4.50
2018-11-23T13:17:17.720Z,4.60